sensor_id;sensor_type;location;lat;lon;timestamp;P1;durP1;ratioP1;P2;durP2;ratioP2
12892;SDS011;6514;48.606;9.222;2023-12-22T00:01:13;0.77;;;0.40;;
12892;SDS011;6514;48.606;9.222;2023-12-22T00:03:41;1.40;;;0.50;;
12892;SDS011;6514;48.606;9.222;2023-12-22T00:06:12;0.43;;;0.40;;
12892;SDS011;6514;48.606;9.222;2023-12-22T00:08:39;1.43;;;0.50;;
12892;SDS011;6514;48.606;9.222;2023-12-22T00:11:06;2.50;;;0.50;;
12892;SDS011;6514;48.606;9.222;2023-12-22T00:13:33;2.87;;;0.70;;
12892;SDS011;6514;48.606;9.222;2023-12-22T00:16:00;2.53;;;1.30;;
12892;SDS011;6514;48.606;9.222;2023-12-22T00:18:27;3.13;;;0.87;;
12892;SDS011;6514;48.606;9.222;2023-12-22T00:20:54;1.73;;;0.70;;
12892;SDS011;6514;48.606;9.222;2023-12-22T00:23:22;2.20;;;0.83;;
12892;SDS011;6514;48.606;9.222;2023-12-22T00:25:49;1.87;;;0.90;;
12892;SDS011;6514;48.606;9.222;2023-12-22T00:28:15;5.40;;;1.00;;
12892;SDS011;6514;48.606;9.222;2023-12-22T00:30:42;3.27;;;1.10;;
12892;SDS011;6514;48.606;9.222;2023-12-22T00:33:09;5.00;;;1.30;;
12892;SDS011;6514;48.606;9.222;2023-12-22T00:35:36;3.30;;;1.00;;
12892;SDS011;6514;48.606;9.222;2023-12-22T00:38:03;5.60;;;1.33;;
12892;SDS011;6514;48.606;9.222;2023-12-22T00:40:31;2.17;;;1.10;;
12892;SDS011;6514;48.606;9.222;2023-12-22T00:42:58;2.07;;;0.83;;
12892;SDS011;6514;48.606;9.222;2023-12-22T00:45:24;4.60;;;0.90;;
12892;SDS011;6514;48.606;9.222;2023-12-22T00:47:51;1.93;;;1.17;;
12892;SDS011;6514;48.606;9.222;2023-12-22T00:50:18;1.70;;;0.73;;
12892;SDS011;6514;48.606;9.222;2023-12-22T00:52:45;1.00;;;0.90;;
12892;SDS011;6514;48.606;9.222;2023-12-22T00:55:12;3.20;;;0.87;;
12892;SDS011;6514;48.606;9.222;2023-12-22T00:57:40;2.80;;;0.83;;
12892;SDS011;6514;48.606;9.222;2023-12-22T01:00:08;3.10;;;0.97;;
12892;SDS011;6514;48.606;9.222;2023-12-22T01:02:37;4.37;;;1.17;;
12892;SDS011;6514;48.606;9.222;2023-12-22T01:05:04;1.93;;;0.90;;
12892;SDS011;6514;48.606;9.222;2023-12-22T01:07:31;2.83;;;0.90;;
12892;SDS011;6514;48.606;9.222;2023-12-22T01:09:58;2.83;;;0.90;;
12892;SDS011;6514;48.606;9.222;2023-12-22T01:12:26;3.67;;;1.10;;
12892;SDS011;6514;48.606;9.222;2023-12-22T01:14:54;3.53;;;1.10;;
12892;SDS011;6514;48.606;9.222;2023-12-22T01:17:21;3.63;;;1.10;;
12892;SDS011;6514;48.606;9.222;2023-12-22T01:19:48;2.77;;;1.00;;
12892;SDS011;6514;48.606;9.222;2023-12-22T01:22:16;2.27;;;0.70;;
12892;SDS011;6514;48.606;9.222;2023-12-22T01:24:42;3.63;;;1.00;;
12892;SDS011;6514;48.606;9.222;2023-12-22T01:27:10;6.00;;;1.07;;
12892;SDS011;6514;48.606;9.222;2023-12-22T01:29:38;3.23;;;1.10;;
12892;SDS011;6514;48.606;9.222;2023-12-22T01:32:06;3.27;;;1.00;;
12892;SDS011;6514;48.606;9.222;2023-12-22T01:34:33;2.17;;;0.87;;
12892;SDS011;6514;48.606;9.222;2023-12-22T01:37:00;1.67;;;0.70;;
12892;SDS011;6514;48.606;9.222;2023-12-22T01:39:26;0.77;;;0.70;;
12892;SDS011;6514;48.606;9.222;2023-12-22T01:41:53;2.97;;;0.97;;
12892;SDS011;6514;48.606;9.222;2023-12-22T01:44:20;2.20;;;0.90;;
12892;SDS011;6514;48.606;9.222;2023-12-22T01:46:47;2.07;;;0.80;;
12892;SDS011;6514;48.606;9.222;2023-12-22T01:49:16;1.17;;;0.70;;
12892;SDS011;6514;48.606;9.222;2023-12-22T01:51:43;0.80;;;0.40;;
12892;SDS011;6514;48.606;9.222;2023-12-22T01:54:10;0.97;;;0.40;;
12892;SDS011;6514;48.606;9.222;2023-12-22T01:56:39;1.27;;;0.40;;
12892;SDS011;6514;48.606;9.222;2023-12-22T01:59:06;1.77;;;0.60;;
12892;SDS011;6514;48.606;9.222;2023-12-22T02:01:34;0.97;;;0.47;;
12892;SDS011;6514;48.606;9.222;2023-12-22T02:04:02;0.53;;;0.50;;
12892;SDS011;6514;48.606;9.222;2023-12-22T02:06:31;0.80;;;0.30;;
12892;SDS011;6514;48.606;9.222;2023-12-22T02:09:00;1.03;;;0.30;;
12892;SDS011;6514;48.606;9.222;2023-12-22T02:11:29;0.83;;;0.40;;
12892;SDS011;6514;48.606;9.222;2023-12-22T02:13:55;1.80;;;0.70;;
12892;SDS011;6514;48.606;9.222;2023-12-22T02:16:24;0.97;;;0.30;;
12892;SDS011;6514;48.606;9.222;2023-12-22T02:18:55;0.60;;;0.50;;
12892;SDS011;6514;48.606;9.222;2023-12-22T02:21:22;1.90;;;0.60;;
12892;SDS011;6514;48.606;9.222;2023-12-22T02:23:50;1.23;;;0.50;;
12892;SDS011;6514;48.606;9.222;2023-12-22T02:26:18;1.17;;;0.60;;
12892;SDS011;6514;48.606;9.222;2023-12-22T02:29:03;1.60;;;0.50;;
12892;SDS011;6514;48.606;9.222;2023-12-22T02:31:33;1.80;;;0.70;;
12892;SDS011;6514;48.606;9.222;2023-12-22T02:34:05;2.67;;;0.47;;
12892;SDS011;6514;48.606;9.222;2023-12-22T02:36:38;2.93;;;0.60;;
12892;SDS011;6514;48.606;9.222;2023-12-22T02:39:07;2.50;;;0.53;;
12892;SDS011;6514;48.606;9.222;2023-12-22T02:41:36;1.43;;;0.57;;
12892;SDS011;6514;48.606;9.222;2023-12-22T02:44:03;1.47;;;0.60;;
12892;SDS011;6514;48.606;9.222;2023-12-22T02:46:31;2.10;;;0.80;;
12892;SDS011;6514;48.606;9.222;2023-12-22T02:48:58;5.10;;;1.10;;
12892;SDS011;6514;48.606;9.222;2023-12-22T02:51:25;4.00;;;0.80;;
12892;SDS011;6514;48.606;9.222;2023-12-22T02:53:52;2.33;;;0.73;;
12892;SDS011;6514;48.606;9.222;2023-12-22T02:56:20;2.17;;;0.70;;
12892;SDS011;6514;48.606;9.222;2023-12-22T02:58:46;5.27;;;0.90;;
12892;SDS011;6514;48.606;9.222;2023-12-22T03:01:13;2.33;;;0.63;;
12892;SDS011;6514;48.606;9.222;2023-12-22T03:03:40;2.50;;;0.90;;
12892;SDS011;6514;48.606;9.222;2023-12-22T03:06:07;1.93;;;0.70;;
12892;SDS011;6514;48.606;9.222;2023-12-22T03:08:34;3.30;;;0.90;;
12892;SDS011;6514;48.606;9.222;2023-12-22T03:11:00;2.03;;;0.80;;
12892;SDS011;6514;48.606;9.222;2023-12-22T03:13:29;2.37;;;0.70;;
12892;SDS011;6514;48.606;9.222;2023-12-22T03:15:57;1.77;;;0.80;;
12892;SDS011;6514;48.606;9.222;2023-12-22T03:18:24;3.50;;;0.70;;
12892;SDS011;6514;48.606;9.222;2023-12-22T03:20:50;1.77;;;0.60;;
12892;SDS011;6514;48.606;9.222;2023-12-22T03:23:17;2.50;;;0.70;;
12892;SDS011;6514;48.606;9.222;2023-12-22T03:25:44;2.27;;;0.67;;
12892;SDS011;6514;48.606;9.222;2023-12-22T03:28:11;2.03;;;0.80;;
12892;SDS011;6514;48.606;9.222;2023-12-22T03:30:39;4.73;;;0.90;;
12892;SDS011;6514;48.606;9.222;2023-12-22T03:33:06;4.30;;;0.70;;
12892;SDS011;6514;48.606;9.222;2023-12-22T03:35:32;2.27;;;0.70;;
12892;SDS011;6514;48.606;9.222;2023-12-22T03:37:59;2.17;;;0.70;;
12892;SDS011;6514;48.606;9.222;2023-12-22T03:40:29;1.03;;;0.50;;
12892;SDS011;6514;48.606;9.222;2023-12-22T03:42:56;0.97;;;0.63;;
12892;SDS011;6514;48.606;9.222;2023-12-22T03:45:22;1.57;;;0.60;;
12892;SDS011;6514;48.606;9.222;2023-12-22T03:47:50;5.23;;;0.83;;
12892;SDS011;6514;48.606;9.222;2023-12-22T03:50:17;2.83;;;1.10;;
12892;SDS011;6514;48.606;9.222;2023-12-22T03:52:44;0.87;;;0.63;;
12892;SDS011;6514;48.606;9.222;2023-12-22T03:55:11;2.00;;;0.60;;
12892;SDS011;6514;48.606;9.222;2023-12-22T03:57:38;2.80;;;0.90;;
12892;SDS011;6514;48.606;9.222;2023-12-22T04:00:05;2.60;;;0.70;;
12892;SDS011;6514;48.606;9.222;2023-12-22T04:02:33;2.97;;;0.70;;
12892;SDS011;6514;48.606;9.222;2023-12-22T04:05:01;2.33;;;0.70;;
12892;SDS011;6514;48.606;9.222;2023-12-22T04:07:29;3.20;;;0.87;;
12892;SDS011;6514;48.606;9.222;2023-12-22T04:09:55;2.10;;;0.80;;
12892;SDS011;6514;48.606;9.222;2023-12-22T04:12:22;1.57;;;0.80;;
12892;SDS011;6514;48.606;9.222;2023-12-22T04:14:49;2.07;;;0.63;;
12892;SDS011;6514;48.606;9.222;2023-12-22T04:17:16;2.47;;;0.87;;
12892;SDS011;6514;48.606;9.222;2023-12-22T04:19:43;4.43;;;0.90;;
12892;SDS011;6514;48.606;9.222;2023-12-22T04:22:11;3.57;;;0.70;;
12892;SDS011;6514;48.606;9.222;2023-12-22T04:24:38;5.47;;;0.87;;
12892;SDS011;6514;48.606;9.222;2023-12-22T04:27:05;3.47;;;1.10;;
12892;SDS011;6514;48.606;9.222;2023-12-22T04:29:32;5.50;;;1.10;;
12892;SDS011;6514;48.606;9.222;2023-12-22T04:31:58;3.90;;;0.80;;
12892;SDS011;6514;48.606;9.222;2023-12-22T04:34:25;4.20;;;1.20;;
12892;SDS011;6514;48.606;9.222;2023-12-22T04:36:52;4.37;;;0.93;;
12892;SDS011;6514;48.606;9.222;2023-12-22T04:39:20;3.03;;;0.80;;
12892;SDS011;6514;48.606;9.222;2023-12-22T04:41:47;5.97;;;1.20;;
12892;SDS011;6514;48.606;9.222;2023-12-22T04:44:14;4.63;;;0.87;;
12892;SDS011;6514;48.606;9.222;2023-12-22T04:46:42;3.63;;;0.67;;
12892;SDS011;6514;48.606;9.222;2023-12-22T04:49:09;1.13;;;0.70;;
12892;SDS011;6514;48.606;9.222;2023-12-22T04:51:36;3.67;;;0.90;;
12892;SDS011;6514;48.606;9.222;2023-12-22T04:54:03;2.70;;;0.80;;
12892;SDS011;6514;48.606;9.222;2023-12-22T04:56:31;2.60;;;0.90;;
12892;SDS011;6514;48.606;9.222;2023-12-22T04:58:58;6.47;;;0.80;;
12892;SDS011;6514;48.606;9.222;2023-12-22T05:01:25;5.60;;;0.87;;
12892;SDS011;6514;48.606;9.222;2023-12-22T05:03:52;3.30;;;0.80;;
12892;SDS011;6514;48.606;9.222;2023-12-22T05:06:19;5.40;;;1.00;;
12892;SDS011;6514;48.606;9.222;2023-12-22T05:08:46;4.13;;;0.90;;
12892;SDS011;6514;48.606;9.222;2023-12-22T05:11:13;2.70;;;0.83;;
12892;SDS011;6514;48.606;9.222;2023-12-22T05:13:41;4.20;;;0.90;;
12892;SDS011;6514;48.606;9.222;2023-12-22T05:16:09;3.87;;;1.00;;
12892;SDS011;6514;48.606;9.222;2023-12-22T05:18:36;4.23;;;1.10;;
12892;SDS011;6514;48.606;9.222;2023-12-22T05:21:03;4.57;;;0.80;;
12892;SDS011;6514;48.606;9.222;2023-12-22T05:23:30;2.43;;;0.90;;
12892;SDS011;6514;48.606;9.222;2023-12-22T05:25:57;3.20;;;1.10;;
12892;SDS011;6514;48.606;9.222;2023-12-22T05:28:24;3.47;;;0.80;;
12892;SDS011;6514;48.606;9.222;2023-12-22T05:30:52;3.40;;;0.97;;
12892;SDS011;6514;48.606;9.222;2023-12-22T05:33:19;4.53;;;1.07;;
12892;SDS011;6514;48.606;9.222;2023-12-22T05:35:46;2.70;;;0.87;;
12892;SDS011;6514;48.606;9.222;2023-12-22T05:38:13;4.47;;;1.20;;
12892;SDS011;6514;48.606;9.222;2023-12-22T05:40:40;5.10;;;1.20;;
12892;SDS011;6514;48.606;9.222;2023-12-22T05:43:06;4.80;;;1.17;;
12892;SDS011;6514;48.606;9.222;2023-12-22T05:45:33;5.53;;;1.40;;
12892;SDS011;6514;48.606;9.222;2023-12-22T05:48:02;7.10;;;1.23;;
12892;SDS011;6514;48.606;9.222;2023-12-22T05:50:29;8.30;;;1.50;;
12892;SDS011;6514;48.606;9.222;2023-12-22T05:52:56;3.63;;;1.27;;
12892;SDS011;6514;48.606;9.222;2023-12-22T05:55:22;6.20;;;1.40;;
12892;SDS011;6514;48.606;9.222;2023-12-22T05:57:49;6.17;;;1.23;;
12892;SDS011;6514;48.606;9.222;2023-12-22T06:00:16;7.43;;;1.57;;
12892;SDS011;6514;48.606;9.222;2023-12-22T06:02:43;4.47;;;1.03;;
12892;SDS011;6514;48.606;9.222;2023-12-22T06:05:11;5.57;;;1.60;;
12892;SDS011;6514;48.606;9.222;2023-12-22T06:07:38;4.97;;;1.23;;
12892;SDS011;6514;48.606;9.222;2023-12-22T06:10:05;2.97;;;0.90;;
12892;SDS011;6514;48.606;9.222;2023-12-22T06:12:34;3.00;;;1.10;;
12892;SDS011;6514;48.606;9.222;2023-12-22T06:15:01;5.40;;;1.23;;
12892;SDS011;6514;48.606;9.222;2023-12-22T06:17:28;8.60;;;1.13;;
12892;SDS011;6514;48.606;9.222;2023-12-22T06:19:55;6.97;;;1.40;;
12892;SDS011;6514;48.606;9.222;2023-12-22T06:22:23;5.10;;;1.30;;
12892;SDS011;6514;48.606;9.222;2023-12-22T06:24:50;5.30;;;1.27;;
12892;SDS011;6514;48.606;9.222;2023-12-22T06:27:16;9.47;;;1.33;;
12892;SDS011;6514;48.606;9.222;2023-12-22T06:29:43;6.93;;;1.30;;
12892;SDS011;6514;48.606;9.222;2023-12-22T06:32:10;3.30;;;1.30;;
12892;SDS011;6514;48.606;9.222;2023-12-22T06:34:37;5.60;;;1.30;;
12892;SDS011;6514;48.606;9.222;2023-12-22T06:37:04;3.60;;;1.20;;
12892;SDS011;6514;48.606;9.222;2023-12-22T06:39:34;3.83;;;1.23;;
12892;SDS011;6514;48.606;9.222;2023-12-22T06:42:00;5.33;;;1.30;;
12892;SDS011;6514;48.606;9.222;2023-12-22T06:44:28;8.17;;;1.60;;
12892;SDS011;6514;48.606;9.222;2023-12-22T06:46:56;6.03;;;1.53;;
12892;SDS011;6514;48.606;9.222;2023-12-22T06:49:23;4.63;;;1.20;;
12892;SDS011;6514;48.606;9.222;2023-12-22T06:51:50;3.17;;;0.90;;
12892;SDS011;6514;48.606;9.222;2023-12-22T06:54:17;3.63;;;1.10;;
12892;SDS011;6514;48.606;9.222;2023-12-22T06:56:45;6.13;;;1.20;;
12892;SDS011;6514;48.606;9.222;2023-12-22T06:59:12;5.33;;;1.10;;
12892;SDS011;6514;48.606;9.222;2023-12-22T07:01:39;4.70;;;1.20;;
12892;SDS011;6514;48.606;9.222;2023-12-22T07:04:06;6.00;;;1.60;;
12892;SDS011;6514;48.606;9.222;2023-12-22T07:06:33;3.67;;;1.00;;
12892;SDS011;6514;48.606;9.222;2023-12-22T07:12:00;4.27;;;0.97;;
12892;SDS011;6514;48.606;9.222;2023-12-22T07:14:28;3.03;;;1.30;;
12892;SDS011;6514;48.606;9.222;2023-12-22T07:16:55;3.73;;;1.20;;
12892;SDS011;6514;48.606;9.222;2023-12-22T07:19:26;5.00;;;1.20;;
12892;SDS011;6514;48.606;9.222;2023-12-22T07:21:53;3.53;;;1.13;;
12892;SDS011;6514;48.606;9.222;2023-12-22T07:24:19;7.23;;;1.23;;
12892;SDS011;6514;48.606;9.222;2023-12-22T07:26:46;7.30;;;1.47;;
12892;SDS011;6514;48.606;9.222;2023-12-22T07:29:14;3.97;;;1.07;;
12892;SDS011;6514;48.606;9.222;2023-12-22T07:31:41;10.03;;;1.50;;
12892;SDS011;6514;48.606;9.222;2023-12-22T07:34:08;4.80;;;1.57;;
12892;SDS011;6514;48.606;9.222;2023-12-22T07:36:36;4.17;;;1.30;;
12892;SDS011;6514;48.606;9.222;2023-12-22T07:39:03;4.43;;;1.10;;
12892;SDS011;6514;48.606;9.222;2023-12-22T07:41:31;6.00;;;1.23;;
12892;SDS011;6514;48.606;9.222;2023-12-22T07:43:58;5.57;;;1.27;;
12892;SDS011;6514;48.606;9.222;2023-12-22T07:46:27;7.77;;;1.30;;
12892;SDS011;6514;48.606;9.222;2023-12-22T07:48:55;4.97;;;1.43;;
12892;SDS011;6514;48.606;9.222;2023-12-22T07:51:22;5.10;;;1.20;;
12892;SDS011;6514;48.606;9.222;2023-12-22T07:53:49;5.57;;;1.27;;
12892;SDS011;6514;48.606;9.222;2023-12-22T07:56:16;3.70;;;1.50;;
12892;SDS011;6514;48.606;9.222;2023-12-22T07:58:43;3.87;;;1.20;;
12892;SDS011;6514;48.606;9.222;2023-12-22T08:01:10;5.30;;;1.20;;
12892;SDS011;6514;48.606;9.222;2023-12-22T08:03:38;5.33;;;1.30;;
12892;SDS011;6514;48.606;9.222;2023-12-22T08:06:05;3.10;;;1.20;;
12892;SDS011;6514;48.606;9.222;2023-12-22T08:08:33;8.40;;;1.40;;
12892;SDS011;6514;48.606;9.222;2023-12-22T08:11:00;5.97;;;1.47;;
12892;SDS011;6514;48.606;9.222;2023-12-22T08:13:27;2.07;;;1.00;;
12892;SDS011;6514;48.606;9.222;2023-12-22T08:15:53;5.00;;;1.43;;
12892;SDS011;6514;48.606;9.222;2023-12-22T08:18:20;5.23;;;1.93;;
12892;SDS011;6514;48.606;9.222;2023-12-22T08:20:49;3.77;;;1.13;;
12892;SDS011;6514;48.606;9.222;2023-12-22T08:23:16;6.60;;;1.30;;
12892;SDS011;6514;48.606;9.222;2023-12-22T08:25:42;4.20;;;1.30;;
12892;SDS011;6514;48.606;9.222;2023-12-22T08:28:09;7.40;;;1.30;;
12892;SDS011;6514;48.606;9.222;2023-12-22T08:30:37;8.43;;;1.30;;
12892;SDS011;6514;48.606;9.222;2023-12-22T08:33:04;7.00;;;1.33;;
12892;SDS011;6514;48.606;9.222;2023-12-22T08:35:31;4.00;;;1.30;;
12892;SDS011;6514;48.606;9.222;2023-12-22T08:37:59;7.43;;;1.67;;
12892;SDS011;6514;48.606;9.222;2023-12-22T08:40:26;6.63;;;1.47;;
12892;SDS011;6514;48.606;9.222;2023-12-22T08:42:53;8.73;;;1.50;;
12892;SDS011;6514;48.606;9.222;2023-12-22T08:45:24;6.53;;;1.30;;
12892;SDS011;6514;48.606;9.222;2023-12-22T08:47:53;7.87;;;1.57;;
12892;SDS011;6514;48.606;9.222;2023-12-22T08:50:20;7.70;;;1.53;;
12892;SDS011;6514;48.606;9.222;2023-12-22T08:52:47;4.50;;;1.33;;
12892;SDS011;6514;48.606;9.222;2023-12-22T08:55:15;4.40;;;1.77;;
12892;SDS011;6514;48.606;9.222;2023-12-22T08:57:42;6.23;;;1.70;;
12892;SDS011;6514;48.606;9.222;2023-12-22T09:00:10;8.67;;;1.40;;
12892;SDS011;6514;48.606;9.222;2023-12-22T09:02:37;9.17;;;1.60;;
12892;SDS011;6514;48.606;9.222;2023-12-22T09:05:05;5.73;;;1.20;;
12892;SDS011;6514;48.606;9.222;2023-12-22T09:07:33;4.90;;;1.60;;
12892;SDS011;6514;48.606;9.222;2023-12-22T09:10:00;3.70;;;1.23;;
12892;SDS011;6514;48.606;9.222;2023-12-22T09:12:28;5.87;;;1.30;;
12892;SDS011;6514;48.606;9.222;2023-12-22T09:14:55;5.30;;;1.20;;
12892;SDS011;6514;48.606;9.222;2023-12-22T09:17:23;4.07;;;1.10;;
12892;SDS011;6514;48.606;9.222;2023-12-22T09:19:52;5.20;;;1.10;;
12892;SDS011;6514;48.606;9.222;2023-12-22T09:22:20;6.97;;;1.47;;
12892;SDS011;6514;48.606;9.222;2023-12-22T09:24:47;4.70;;;1.47;;
12892;SDS011;6514;48.606;9.222;2023-12-22T09:27:14;4.97;;;1.50;;
12892;SDS011;6514;48.606;9.222;2023-12-22T09:29:42;4.80;;;1.47;;
12892;SDS011;6514;48.606;9.222;2023-12-22T09:32:09;3.47;;;1.50;;
12892;SDS011;6514;48.606;9.222;2023-12-22T09:34:36;4.40;;;1.03;;
12892;SDS011;6514;48.606;9.222;2023-12-22T09:37:04;7.33;;;1.40;;
12892;SDS011;6514;48.606;9.222;2023-12-22T09:39:31;8.40;;;1.50;;
12892;SDS011;6514;48.606;9.222;2023-12-22T09:41:58;7.50;;;1.50;;
12892;SDS011;6514;48.606;9.222;2023-12-22T09:44:24;9.00;;;1.47;;
12892;SDS011;6514;48.606;9.222;2023-12-22T09:46:59;4.73;;;1.30;;
12892;SDS011;6514;48.606;9.222;2023-12-22T09:49:27;8.47;;;1.67;;
12892;SDS011;6514;48.606;9.222;2023-12-22T09:51:55;6.03;;;1.43;;
12892;SDS011;6514;48.606;9.222;2023-12-22T09:54:23;6.77;;;1.37;;
12892;SDS011;6514;48.606;9.222;2023-12-22T09:56:51;5.80;;;1.20;;
12892;SDS011;6514;48.606;9.222;2023-12-22T09:59:19;3.83;;;1.07;;
12892;SDS011;6514;48.606;9.222;2023-12-22T10:01:49;7.40;;;1.40;;
12892;SDS011;6514;48.606;9.222;2023-12-22T10:04:20;3.13;;;1.27;;
12892;SDS011;6514;48.606;9.222;2023-12-22T10:06:47;7.43;;;1.37;;
12892;SDS011;6514;48.606;9.222;2023-12-22T10:09:15;7.27;;;1.07;;
12892;SDS011;6514;48.606;9.222;2023-12-22T10:11:43;7.17;;;1.50;;
12892;SDS011;6514;48.606;9.222;2023-12-22T10:14:10;6.73;;;1.13;;
12892;SDS011;6514;48.606;9.222;2023-12-22T10:16:38;7.70;;;1.47;;
12892;SDS011;6514;48.606;9.222;2023-12-22T10:19:06;3.40;;;1.20;;
12892;SDS011;6514;48.606;9.222;2023-12-22T10:21:36;5.70;;;1.40;;
12892;SDS011;6514;48.606;9.222;2023-12-22T10:24:03;6.13;;;1.47;;
12892;SDS011;6514;48.606;9.222;2023-12-22T10:26:30;4.30;;;1.10;;
12892;SDS011;6514;48.606;9.222;2023-12-22T10:28:57;5.67;;;1.43;;
12892;SDS011;6514;48.606;9.222;2023-12-22T10:31:24;7.60;;;1.50;;
12892;SDS011;6514;48.606;9.222;2023-12-22T10:33:53;6.77;;;1.43;;
12892;SDS011;6514;48.606;9.222;2023-12-22T10:36:20;6.67;;;1.30;;
12892;SDS011;6514;48.606;9.222;2023-12-22T10:38:48;10.03;;;1.83;;
12892;SDS011;6514;48.606;9.222;2023-12-22T10:41:15;7.93;;;1.73;;
12892;SDS011;6514;48.606;9.222;2023-12-22T10:43:42;5.50;;;1.23;;
12892;SDS011;6514;48.606;9.222;2023-12-22T10:46:09;7.90;;;1.90;;
12892;SDS011;6514;48.606;9.222;2023-12-22T10:48:38;10.20;;;1.50;;
12892;SDS011;6514;48.606;9.222;2023-12-22T10:51:08;6.03;;;1.67;;
12892;SDS011;6514;48.606;9.222;2023-12-22T10:53:36;3.83;;;1.10;;
12892;SDS011;6514;48.606;9.222;2023-12-22T10:56:08;8.00;;;1.43;;
12892;SDS011;6514;48.606;9.222;2023-12-22T10:58:35;7.00;;;1.40;;
12892;SDS011;6514;48.606;9.222;2023-12-22T11:01:02;7.60;;;1.93;;
12892;SDS011;6514;48.606;9.222;2023-12-22T11:03:29;5.50;;;1.80;;
12892;SDS011;6514;48.606;9.222;2023-12-22T11:05:59;8.63;;;1.67;;
12892;SDS011;6514;48.606;9.222;2023-12-22T11:08:32;6.87;;;1.40;;
12892;SDS011;6514;48.606;9.222;2023-12-22T11:11:01;5.83;;;1.53;;
12892;SDS011;6514;48.606;9.222;2023-12-22T11:13:40;4.30;;;1.27;;
12892;SDS011;6514;48.606;9.222;2023-12-22T11:16:08;4.83;;;1.60;;
12892;SDS011;6514;48.606;9.222;2023-12-22T11:18:36;5.20;;;1.50;;
12892;SDS011;6514;48.606;9.222;2023-12-22T11:21:04;6.33;;;1.40;;
12892;SDS011;6514;48.606;9.222;2023-12-22T11:23:34;6.47;;;1.37;;
12892;SDS011;6514;48.606;9.222;2023-12-22T11:26:03;8.30;;;1.27;;
12892;SDS011;6514;48.606;9.222;2023-12-22T11:28:33;3.40;;;1.20;;
12892;SDS011;6514;48.606;9.222;2023-12-22T11:31:01;4.17;;;1.37;;
12892;SDS011;6514;48.606;9.222;2023-12-22T11:33:29;4.43;;;0.97;;
12892;SDS011;6514;48.606;9.222;2023-12-22T11:35:57;3.57;;;1.00;;
12892;SDS011;6514;48.606;9.222;2023-12-22T11:38:25;7.27;;;1.30;;
12892;SDS011;6514;48.606;9.222;2023-12-22T11:40:52;3.70;;;0.90;;
12892;SDS011;6514;48.606;9.222;2023-12-22T11:43:20;3.37;;;1.10;;
12892;SDS011;6514;48.606;9.222;2023-12-22T11:45:49;3.93;;;1.20;;
12892;SDS011;6514;48.606;9.222;2023-12-22T11:48:17;4.10;;;1.40;;
12892;SDS011;6514;48.606;9.222;2023-12-22T11:50:44;4.33;;;1.40;;
12892;SDS011;6514;48.606;9.222;2023-12-22T11:53:17;6.53;;;1.80;;
12892;SDS011;6514;48.606;9.222;2023-12-22T11:56:00;6.00;;;2.33;;
12892;SDS011;6514;48.606;9.222;2023-12-22T11:58:36;7.17;;;1.80;;
12892;SDS011;6514;48.606;9.222;2023-12-22T12:01:06;6.33;;;1.40;;
12892;SDS011;6514;48.606;9.222;2023-12-22T12:03:35;6.57;;;1.60;;
12892;SDS011;6514;48.606;9.222;2023-12-22T12:06:11;5.60;;;1.50;;
12892;SDS011;6514;48.606;9.222;2023-12-22T12:08:41;3.50;;;1.40;;
12892;SDS011;6514;48.606;9.222;2023-12-22T12:11:08;4.27;;;1.40;;
12892;SDS011;6514;48.606;9.222;2023-12-22T12:13:36;5.00;;;1.30;;
12892;SDS011;6514;48.606;9.222;2023-12-22T12:16:09;6.47;;;1.20;;
12892;SDS011;6514;48.606;9.222;2023-12-22T12:18:37;3.77;;;1.03;;
12892;SDS011;6514;48.606;9.222;2023-12-22T12:21:05;7.07;;;1.10;;
12892;SDS011;6514;48.606;9.222;2023-12-22T12:23:33;4.40;;;1.20;;
12892;SDS011;6514;48.606;9.222;2023-12-22T12:26:00;4.00;;;1.30;;
12892;SDS011;6514;48.606;9.222;2023-12-22T12:28:28;3.60;;;1.07;;
12892;SDS011;6514;48.606;9.222;2023-12-22T12:30:57;2.20;;;1.13;;
12892;SDS011;6514;48.606;9.222;2023-12-22T12:33:27;3.23;;;0.87;;
12892;SDS011;6514;48.606;9.222;2023-12-22T12:38:23;1.87;;;0.90;;
12892;SDS011;6514;48.606;9.222;2023-12-22T12:41:02;2.30;;;0.80;;
12892;SDS011;6514;48.606;9.222;2023-12-22T12:43:30;2.47;;;0.90;;
12892;SDS011;6514;48.606;9.222;2023-12-22T12:46:02;3.50;;;1.10;;
12892;SDS011;6514;48.606;9.222;2023-12-22T12:48:31;1.30;;;0.77;;
12892;SDS011;6514;48.606;9.222;2023-12-22T12:53:46;1.53;;;0.60;;
12892;SDS011;6514;48.606;9.222;2023-12-22T12:56:13;1.43;;;0.57;;
12892;SDS011;6514;48.606;9.222;2023-12-22T12:58:40;0.90;;;0.60;;
12892;SDS011;6514;48.606;9.222;2023-12-22T13:01:07;2.80;;;0.60;;
12892;SDS011;6514;48.606;9.222;2023-12-22T13:06:19;0.60;;;0.53;;
12892;SDS011;6514;48.606;9.222;2023-12-22T13:08:47;3.17;;;0.60;;
12892;SDS011;6514;48.606;9.222;2023-12-22T13:11:15;1.20;;;0.60;;
12892;SDS011;6514;48.606;9.222;2023-12-22T13:13:42;2.10;;;0.70;;
12892;SDS011;6514;48.606;9.222;2023-12-22T13:16:09;1.00;;;0.40;;
12892;SDS011;6514;48.606;9.222;2023-12-22T13:18:36;0.90;;;0.60;;
12892;SDS011;6514;48.606;9.222;2023-12-22T13:21:05;1.47;;;0.57;;
12892;SDS011;6514;48.606;9.222;2023-12-22T13:23:32;1.30;;;0.50;;
12892;SDS011;6514;48.606;9.222;2023-12-22T13:25:59;0.23;;;0.23;;
12892;SDS011;6514;48.606;9.222;2023-12-22T13:28:26;1.33;;;0.60;;
12892;SDS011;6514;48.606;9.222;2023-12-22T13:30:53;0.67;;;0.47;;
12892;SDS011;6514;48.606;9.222;2023-12-22T13:33:21;0.50;;;0.40;;
12892;SDS011;6514;48.606;9.222;2023-12-22T13:35:49;1.27;;;0.40;;
12892;SDS011;6514;48.606;9.222;2023-12-22T13:38:18;0.40;;;0.40;;
12892;SDS011;6514;48.606;9.222;2023-12-22T13:40:45;1.23;;;0.30;;
12892;SDS011;6514;48.606;9.222;2023-12-22T13:43:12;1.50;;;0.40;;
12892;SDS011;6514;48.606;9.222;2023-12-22T13:45:39;0.40;;;0.40;;
12892;SDS011;6514;48.606;9.222;2023-12-22T13:48:06;1.40;;;0.30;;
12892;SDS011;6514;48.606;9.222;2023-12-22T13:50:33;0.50;;;0.43;;
12892;SDS011;6514;48.606;9.222;2023-12-22T13:53:07;1.03;;;0.40;;
12892;SDS011;6514;48.606;9.222;2023-12-22T13:55:36;0.60;;;0.40;;
12892;SDS011;6514;48.606;9.222;2023-12-22T13:58:04;0.40;;;0.40;;
12892;SDS011;6514;48.606;9.222;2023-12-22T14:00:31;0.50;;;0.30;;
12892;SDS011;6514;48.606;9.222;2023-12-22T14:02:58;0.30;;;0.27;;
12892;SDS011;6514;48.606;9.222;2023-12-22T14:05:27;0.20;;;0.20;;
12892;SDS011;6514;48.606;9.222;2023-12-22T14:07:54;0.30;;;0.30;;
12892;SDS011;6514;48.606;9.222;2023-12-22T14:10:21;1.13;;;0.30;;
12892;SDS011;6514;48.606;9.222;2023-12-22T14:12:49;2.53;;;0.30;;
12892;SDS011;6514;48.606;9.222;2023-12-22T14:15:16;0.30;;;0.30;;
12892;SDS011;6514;48.606;9.222;2023-12-22T14:17:43;0.30;;;0.30;;
12892;SDS011;6514;48.606;9.222;2023-12-22T14:20:10;0.20;;;0.20;;
12892;SDS011;6514;48.606;9.222;2023-12-22T14:22:37;0.30;;;0.30;;
12892;SDS011;6514;48.606;9.222;2023-12-22T14:25:04;0.57;;;0.30;;
12892;SDS011;6514;48.606;9.222;2023-12-22T14:27:32;1.23;;;0.30;;
12892;SDS011;6514;48.606;9.222;2023-12-22T14:30:00;0.20;;;0.20;;
12892;SDS011;6514;48.606;9.222;2023-12-22T14:32:30;0.20;;;0.20;;
12892;SDS011;6514;48.606;9.222;2023-12-22T14:34:57;0.30;;;0.30;;
12892;SDS011;6514;48.606;9.222;2023-12-22T14:37:23;0.23;;;0.23;;
12892;SDS011;6514;48.606;9.222;2023-12-22T14:39:51;0.40;;;0.30;;
12892;SDS011;6514;48.606;9.222;2023-12-22T14:42:18;0.30;;;0.20;;
12892;SDS011;6514;48.606;9.222;2023-12-22T14:44:45;0.27;;;0.23;;
12892;SDS011;6514;48.606;9.222;2023-12-22T14:47:14;0.30;;;0.30;;
12892;SDS011;6514;48.606;9.222;2023-12-22T14:49:41;0.40;;;0.40;;
12892;SDS011;6514;48.606;9.222;2023-12-22T14:52:08;0.60;;;0.30;;
12892;SDS011;6514;48.606;9.222;2023-12-22T14:54:34;0.30;;;0.30;;
12892;SDS011;6514;48.606;9.222;2023-12-22T14:57:02;0.37;;;0.30;;
12892;SDS011;6514;48.606;9.222;2023-12-22T14:59:29;0.60;;;0.30;;
12892;SDS011;6514;48.606;9.222;2023-12-22T15:01:56;0.30;;;0.30;;
12892;SDS011;6514;48.606;9.222;2023-12-22T15:04:25;0.93;;;0.30;;
12892;SDS011;6514;48.606;9.222;2023-12-22T15:06:52;0.40;;;0.30;;
12892;SDS011;6514;48.606;9.222;2023-12-22T15:09:19;0.30;;;0.30;;
12892;SDS011;6514;48.606;9.222;2023-12-22T15:11:46;0.83;;;0.40;;
12892;SDS011;6514;48.606;9.222;2023-12-22T15:14:13;0.30;;;0.30;;